sensor_id;sensor_type;location;lat;lon;timestamp;P1;durP1;ratioP1;P2;durP2;ratioP2
13032;SDS011;6583;42.632;23.298;2023-02-24T00:02:24;28.40;;;17.67;;
13032;SDS011;6583;42.632;23.298;2023-02-24T00:04:53;26.80;;;16.40;;
13032;SDS011;6583;42.632;23.298;2023-02-24T00:07:21;27.70;;;17.33;;
13032;SDS011;6583;42.632;23.298;2023-02-24T00:09:48;29.63;;;17.57;;
13032;SDS011;6583;42.632;23.298;2023-02-24T00:12:16;25.80;;;16.50;;
13032;SDS011;6583;42.632;23.298;2023-02-24T00:14:44;28.50;;;15.87;;
13032;SDS011;6583;42.632;23.298;2023-02-24T00:17:11;26.77;;;16.90;;
13032;SDS011;6583;42.632;23.298;2023-02-24T00:19:39;26.73;;;16.33;;
13032;SDS011;6583;42.632;23.298;2023-02-24T00:22:06;23.87;;;15.33;;
13032;SDS011;6583;42.632;23.298;2023-02-24T00:24:35;25.37;;;16.13;;
13032;SDS011;6583;42.632;23.298;2023-02-24T00:27:03;27.33;;;15.67;;
13032;SDS011;6583;42.632;23.298;2023-02-24T00:29:32;25.53;;;15.53;;
13032;SDS011;6583;42.632;23.298;2023-02-24T00:32:01;25.00;;;15.53;;
13032;SDS011;6583;42.632;23.298;2023-02-24T00:34:32;22.70;;;15.63;;
13032;SDS011;6583;42.632;23.298;2023-02-24T00:37:00;24.37;;;15.77;;
13032;SDS011;6583;42.632;23.298;2023-02-24T00:39:28;26.07;;;16.53;;
13032;SDS011;6583;42.632;23.298;2023-02-24T00:41:59;26.07;;;14.57;;
13032;SDS011;6583;42.632;23.298;2023-02-24T00:44:29;24.40;;;14.97;;
13032;SDS011;6583;42.632;23.298;2023-02-24T00:46:58;24.07;;;14.77;;
13032;SDS011;6583;42.632;23.298;2023-02-24T00:49:25;26.87;;;14.83;;
13032;SDS011;6583;42.632;23.298;2023-02-24T00:51:53;24.23;;;15.27;;
13032;SDS011;6583;42.632;23.298;2023-02-24T00:54:21;24.80;;;15.23;;
13032;SDS011;6583;42.632;23.298;2023-02-24T00:56:51;23.37;;;14.63;;
13032;SDS011;6583;42.632;23.298;2023-02-24T00:59:20;26.23;;;15.33;;
13032;SDS011;6583;42.632;23.298;2023-02-24T01:01:49;23.20;;;14.33;;
13032;SDS011;6583;42.632;23.298;2023-02-24T01:04:18;23.90;;;14.13;;
13032;SDS011;6583;42.632;23.298;2023-02-24T01:06:46;22.07;;;14.40;;
13032;SDS011;6583;42.632;23.298;2023-02-24T01:09:15;23.90;;;14.40;;
13032;SDS011;6583;42.632;23.298;2023-02-24T01:11:44;21.53;;;14.20;;
13032;SDS011;6583;42.632;23.298;2023-02-24T01:14:43;20.63;;;13.43;;
13032;SDS011;6583;42.632;23.298;2023-02-24T01:17:11;21.30;;;13.07;;
13032;SDS011;6583;42.632;23.298;2023-02-24T01:19:39;23.30;;;13.50;;
13032;SDS011;6583;42.632;23.298;2023-02-24T01:22:07;20.97;;;13.27;;
13032;SDS011;6583;42.632;23.298;2023-02-24T01:24:35;18.50;;;12.67;;
13032;SDS011;6583;42.632;23.298;2023-02-24T01:27:05;19.33;;;12.63;;
13032;SDS011;6583;42.632;23.298;2023-02-24T01:29:32;20.17;;;12.60;;
13032;SDS011;6583;42.632;23.298;2023-02-24T01:32:04;17.33;;;11.57;;
13032;SDS011;6583;42.632;23.298;2023-02-24T01:34:31;19.87;;;12.83;;
13032;SDS011;6583;42.632;23.298;2023-02-24T01:36:59;19.03;;;12.37;;
13032;SDS011;6583;42.632;23.298;2023-02-24T01:39:25;19.77;;;13.07;;
13032;SDS011;6583;42.632;23.298;2023-02-24T01:41:52;18.47;;;12.67;;
13032;SDS011;6583;42.632;23.298;2023-02-24T01:47:24;17.77;;;11.90;;
13032;SDS011;6583;42.632;23.298;2023-02-24T01:49:55;15.03;;;10.33;;
13032;SDS011;6583;42.632;23.298;2023-02-24T01:52:22;17.00;;;11.47;;
13032;SDS011;6583;42.632;23.298;2023-02-24T01:54:52;17.17;;;11.13;;
13032;SDS011;6583;42.632;23.298;2023-02-24T01:57:25;17.93;;;11.03;;
13032;SDS011;6583;42.632;23.298;2023-02-24T01:59:55;18.33;;;11.37;;
13032;SDS011;6583;42.632;23.298;2023-02-24T02:02:36;16.57;;;10.97;;
13032;SDS011;6583;42.632;23.298;2023-02-24T02:05:07;17.13;;;11.30;;
13032;SDS011;6583;42.632;23.298;2023-02-24T02:07:36;19.20;;;11.70;;
13032;SDS011;6583;42.632;23.298;2023-02-24T02:10:05;16.80;;;11.70;;
13032;SDS011;6583;42.632;23.298;2023-02-24T02:12:34;16.30;;;10.40;;
13032;SDS011;6583;42.632;23.298;2023-02-24T02:15:08;16.53;;;10.80;;
13032;SDS011;6583;42.632;23.298;2023-02-24T02:17:40;16.77;;;10.80;;
13032;SDS011;6583;42.632;23.298;2023-02-24T02:20:24;15.33;;;10.10;;
13032;SDS011;6583;42.632;23.298;2023-02-24T02:23:05;15.10;;;10.03;;
13032;SDS011;6583;42.632;23.298;2023-02-24T02:25:50;14.17;;;9.33;;
13032;SDS011;6583;42.632;23.298;2023-02-24T02:28:35;14.83;;;9.60;;
13032;SDS011;6583;42.632;23.298;2023-02-24T02:34:26;13.57;;;8.53;;
13032;SDS011;6583;42.632;23.298;2023-02-24T02:37:02;14.80;;;9.30;;
13032;SDS011;6583;42.632;23.298;2023-02-24T02:39:38;13.30;;;8.83;;
13032;SDS011;6583;42.632;23.298;2023-02-24T02:42:12;15.63;;;9.93;;
13032;SDS011;6583;42.632;23.298;2023-02-24T02:44:51;16.87;;;9.83;;
13032;SDS011;6583;42.632;23.298;2023-02-24T02:47:26;14.47;;;8.57;;
13032;SDS011;6583;42.632;23.298;2023-02-24T02:50:00;13.20;;;9.30;;
13032;SDS011;6583;42.632;23.298;2023-02-24T02:52:34;13.97;;;9.33;;
13032;SDS011;6583;42.632;23.298;2023-02-24T02:55:06;14.93;;;9.70;;
13032;SDS011;6583;42.632;23.298;2023-02-24T02:57:38;14.43;;;9.03;;
13032;SDS011;6583;42.632;23.298;2023-02-24T03:00:12;15.27;;;9.10;;
13032;SDS011;6583;42.632;23.298;2023-02-24T03:02:47;15.53;;;9.33;;
13032;SDS011;6583;42.632;23.298;2023-02-24T03:05:21;14.27;;;9.40;;
13032;SDS011;6583;42.632;23.298;2023-02-24T03:07:55;15.17;;;9.97;;
13032;SDS011;6583;42.632;23.298;2023-02-24T03:10:25;14.40;;;9.30;;
13032;SDS011;6583;42.632;23.298;2023-02-24T03:12:56;13.83;;;9.53;;
13032;SDS011;6583;42.632;23.298;2023-02-24T03:15:26;13.70;;;9.83;;
13032;SDS011;6583;42.632;23.298;2023-02-24T03:17:58;13.20;;;9.27;;
13032;SDS011;6583;42.632;23.298;2023-02-24T03:20:36;13.50;;;9.37;;
13032;SDS011;6583;42.632;23.298;2023-02-24T03:23:09;13.57;;;8.83;;
13032;SDS011;6583;42.632;23.298;2023-02-24T03:25:41;12.33;;;8.00;;
13032;SDS011;6583;42.632;23.298;2023-02-24T03:28:13;14.90;;;8.67;;
13032;SDS011;6583;42.632;23.298;2023-02-24T03:30:45;11.13;;;7.93;;
13032;SDS011;6583;42.632;23.298;2023-02-24T03:33:18;12.50;;;8.20;;
13032;SDS011;6583;42.632;23.298;2023-02-24T03:35:51;12.43;;;8.53;;
13032;SDS011;6583;42.632;23.298;2023-02-24T03:38:17;12.70;;;8.23;;
13032;SDS011;6583;42.632;23.298;2023-02-24T03:40:48;12.43;;;7.97;;
13032;SDS011;6583;42.632;23.298;2023-02-24T03:43:17;12.73;;;8.53;;
13032;SDS011;6583;42.632;23.298;2023-02-24T03:45:46;13.33;;;8.30;;
13032;SDS011;6583;42.632;23.298;2023-02-24T03:48:14;13.13;;;8.13;;
13032;SDS011;6583;42.632;23.298;2023-02-24T03:50:41;12.60;;;8.13;;
13032;SDS011;6583;42.632;23.298;2023-02-24T03:56:06;16.90;;;9.23;;
13032;SDS011;6583;42.632;23.298;2023-02-24T03:58:50;13.13;;;8.30;;
13032;SDS011;6583;42.632;23.298;2023-02-24T04:01:25;13.83;;;8.30;;
13032;SDS011;6583;42.632;23.298;2023-02-24T04:03:59;14.03;;;8.23;;
13032;SDS011;6583;42.632;23.298;2023-02-24T04:06:33;13.27;;;8.33;;
13032;SDS011;6583;42.632;23.298;2023-02-24T04:09:09;17.00;;;9.30;;
13032;SDS011;6583;42.632;23.298;2023-02-24T04:11:43;13.20;;;8.27;;
13032;SDS011;6583;42.632;23.298;2023-02-24T04:14:16;13.50;;;9.13;;
13032;SDS011;6583;42.632;23.298;2023-02-24T04:16:50;13.77;;;8.53;;
13032;SDS011;6583;42.632;23.298;2023-02-24T04:19:25;12.70;;;8.17;;
13032;SDS011;6583;42.632;23.298;2023-02-24T04:21:54;13.30;;;8.47;;
13032;SDS011;6583;42.632;23.298;2023-02-24T04:24:24;13.97;;;8.23;;
13032;SDS011;6583;42.632;23.298;2023-02-24T04:26:55;11.60;;;7.73;;
13032;SDS011;6583;42.632;23.298;2023-02-24T04:29:27;12.97;;;8.50;;
13032;SDS011;6583;42.632;23.298;2023-02-24T04:31:59;12.90;;;8.30;;
13032;SDS011;6583;42.632;23.298;2023-02-24T04:34:30;14.23;;;8.07;;
13032;SDS011;6583;42.632;23.298;2023-02-24T04:36:57;10.73;;;7.60;;
13032;SDS011;6583;42.632;23.298;2023-02-24T04:39:28;11.37;;;7.67;;
13032;SDS011;6583;42.632;23.298;2023-02-24T04:41:55;13.53;;;7.60;;
13032;SDS011;6583;42.632;23.298;2023-02-24T04:44:23;11.00;;;8.00;;
13032;SDS011;6583;42.632;23.298;2023-02-24T04:46:50;13.67;;;8.07;;
13032;SDS011;6583;42.632;23.298;2023-02-24T04:49:17;13.27;;;8.27;;
13032;SDS011;6583;42.632;23.298;2023-02-24T04:51:46;12.83;;;8.13;;
13032;SDS011;6583;42.632;23.298;2023-02-24T04:54:13;11.60;;;7.77;;
13032;SDS011;6583;42.632;23.298;2023-02-24T04:56:42;11.90;;;7.63;;
13032;SDS011;6583;42.632;23.298;2023-02-24T04:59:09;13.83;;;8.13;;
13032;SDS011;6583;42.632;23.298;2023-02-24T05:01:37;12.40;;;8.17;;
13032;SDS011;6583;42.632;23.298;2023-02-24T05:04:06;13.30;;;8.13;;
13032;SDS011;6583;42.632;23.298;2023-02-24T05:06:33;11.63;;;8.23;;
13032;SDS011;6583;42.632;23.298;2023-02-24T05:09:00;13.93;;;8.73;;
13032;SDS011;6583;42.632;23.298;2023-02-24T05:11:35;12.57;;;7.93;;
13032;SDS011;6583;42.632;23.298;2023-02-24T05:14:03;13.10;;;8.07;;
13032;SDS011;6583;42.632;23.298;2023-02-24T05:16:30;15.03;;;8.83;;
13032;SDS011;6583;42.632;23.298;2023-02-24T05:18:56;16.43;;;9.00;;
13032;SDS011;6583;42.632;23.298;2023-02-24T05:21:37;17.43;;;8.93;;
13032;SDS011;6583;42.632;23.298;2023-02-24T05:24:06;13.73;;;9.53;;
13032;SDS011;6583;42.632;23.298;2023-02-24T05:26:36;14.80;;;10.67;;
13032;SDS011;6583;42.632;23.298;2023-02-24T05:29:07;14.83;;;9.90;;
13032;SDS011;6583;42.632;23.298;2023-02-24T05:31:33;14.60;;;9.87;;
13032;SDS011;6583;42.632;23.298;2023-02-24T05:34:02;13.80;;;9.77;;
13032;SDS011;6583;42.632;23.298;2023-02-24T05:36:32;13.97;;;9.40;;
13032;SDS011;6583;42.632;23.298;2023-02-24T05:39:00;14.47;;;8.90;;
13032;SDS011;6583;42.632;23.298;2023-02-24T05:41:31;12.23;;;8.03;;
13032;SDS011;6583;42.632;23.298;2023-02-24T05:44:00;11.43;;;7.50;;
13032;SDS011;6583;42.632;23.298;2023-02-24T05:46:30;13.40;;;8.30;;
13032;SDS011;6583;42.632;23.298;2023-02-24T05:48:59;11.60;;;8.13;;
13032;SDS011;6583;42.632;23.298;2023-02-24T05:51:28;13.57;;;8.70;;
13032;SDS011;6583;42.632;23.298;2023-02-24T05:53:59;14.53;;;9.60;;
13032;SDS011;6583;42.632;23.298;2023-02-24T05:56:28;16.30;;;9.73;;
13032;SDS011;6583;42.632;23.298;2023-02-24T05:58:59;13.80;;;9.50;;
13032;SDS011;6583;42.632;23.298;2023-02-24T06:01:31;16.47;;;9.90;;
13032;SDS011;6583;42.632;23.298;2023-02-24T06:04:00;16.33;;;9.97;;
13032;SDS011;6583;42.632;23.298;2023-02-24T06:06:30;15.80;;;10.93;;
13032;SDS011;6583;42.632;23.298;2023-02-24T06:09:00;19.57;;;11.90;;
13032;SDS011;6583;42.632;23.298;2023-02-24T06:11:31;18.73;;;13.13;;
13032;SDS011;6583;42.632;23.298;2023-02-24T06:13:58;16.47;;;11.00;;
13032;SDS011;6583;42.632;23.298;2023-02-24T06:16:25;16.43;;;11.20;;
13032;SDS011;6583;42.632;23.298;2023-02-24T06:18:53;17.20;;;11.00;;
13032;SDS011;6583;42.632;23.298;2023-02-24T06:21:20;17.63;;;10.10;;
13032;SDS011;6583;42.632;23.298;2023-02-24T06:23:47;14.90;;;10.17;;
13032;SDS011;6583;42.632;23.298;2023-02-24T06:26:14;14.97;;;9.40;;
13032;SDS011;6583;42.632;23.298;2023-02-24T06:28:43;14.17;;;9.63;;
13032;SDS011;6583;42.632;23.298;2023-02-24T06:31:12;19.27;;;10.97;;
13032;SDS011;6583;42.632;23.298;2023-02-24T06:33:39;13.47;;;9.10;;
13032;SDS011;6583;42.632;23.298;2023-02-24T06:36:08;16.80;;;11.60;;
13032;SDS011;6583;42.632;23.298;2023-02-24T06:38:35;14.07;;;9.83;;
13032;SDS011;6583;42.632;23.298;2023-02-24T06:41:04;12.67;;;8.67;;
13032;SDS011;6583;42.632;23.298;2023-02-24T06:43:35;13.20;;;9.37;;
13032;SDS011;6583;42.632;23.298;2023-02-24T06:46:02;12.30;;;9.10;;
13032;SDS011;6583;42.632;23.298;2023-02-24T06:48:31;14.53;;;9.17;;
13032;SDS011;6583;42.632;23.298;2023-02-24T06:51:01;13.47;;;8.80;;
13032;SDS011;6583;42.632;23.298;2023-02-24T06:53:31;15.30;;;10.03;;
13032;SDS011;6583;42.632;23.298;2023-02-24T06:56:03;15.50;;;10.47;;
13032;SDS011;6583;42.632;23.298;2023-02-24T06:58:38;15.17;;;10.30;;
13032;SDS011;6583;42.632;23.298;2023-02-24T07:01:08;17.83;;;10.97;;
13032;SDS011;6583;42.632;23.298;2023-02-24T07:03:36;22.03;;;11.30;;
13032;SDS011;6583;42.632;23.298;2023-02-24T07:06:04;17.23;;;11.30;;
13032;SDS011;6583;42.632;23.298;2023-02-24T07:08:47;18.67;;;12.00;;
13032;SDS011;6583;42.632;23.298;2023-02-24T07:11:14;19.20;;;12.93;;
13032;SDS011;6583;42.632;23.298;2023-02-24T07:13:43;19.23;;;12.70;;
13032;SDS011;6583;42.632;23.298;2023-02-24T07:16:11;19.37;;;12.37;;
13032;SDS011;6583;42.632;23.298;2023-02-24T07:18:40;19.17;;;12.67;;
13032;SDS011;6583;42.632;23.298;2023-02-24T07:21:07;19.97;;;12.77;;
13032;SDS011;6583;42.632;23.298;2023-02-24T07:23:36;17.63;;;11.97;;
13032;SDS011;6583;42.632;23.298;2023-02-24T07:26:09;17.23;;;10.63;;
13032;SDS011;6583;42.632;23.298;2023-02-24T07:28:37;14.60;;;9.27;;
13032;SDS011;6583;42.632;23.298;2023-02-24T07:31:05;17.03;;;10.60;;
13032;SDS011;6583;42.632;23.298;2023-02-24T07:33:33;16.40;;;10.90;;
13032;SDS011;6583;42.632;23.298;2023-02-24T07:36:01;13.00;;;9.17;;
13032;SDS011;6583;42.632;23.298;2023-02-24T07:38:33;15.37;;;10.63;;
13032;SDS011;6583;42.632;23.298;2023-02-24T07:41:01;13.90;;;9.87;;
13032;SDS011;6583;42.632;23.298;2023-02-24T07:43:29;12.63;;;8.97;;
13032;SDS011;6583;42.632;23.298;2023-02-24T07:45:56;17.50;;;9.83;;
13032;SDS011;6583;42.632;23.298;2023-02-24T07:48:23;13.30;;;9.83;;
13032;SDS011;6583;42.632;23.298;2023-02-24T07:50:50;18.27;;;10.47;;
13032;SDS011;6583;42.632;23.298;2023-02-24T07:53:17;13.87;;;9.03;;
13032;SDS011;6583;42.632;23.298;2023-02-24T07:55:43;16.17;;;10.23;;
13032;SDS011;6583;42.632;23.298;2023-02-24T07:58:11;15.43;;;9.80;;
13032;SDS011;6583;42.632;23.298;2023-02-24T08:00:39;16.73;;;10.17;;
13032;SDS011;6583;42.632;23.298;2023-02-24T08:03:24;14.50;;;10.17;;
13032;SDS011;6583;42.632;23.298;2023-02-24T08:05:53;14.83;;;10.00;;
13032;SDS011;6583;42.632;23.298;2023-02-24T08:08:24;17.73;;;11.20;;
13032;SDS011;6583;42.632;23.298;2023-02-24T08:10:51;18.23;;;10.70;;
13032;SDS011;6583;42.632;23.298;2023-02-24T08:13:28;17.27;;;10.37;;
13032;SDS011;6583;42.632;23.298;2023-02-24T08:16:05;14.53;;;10.63;;
13032;SDS011;6583;42.632;23.298;2023-02-24T08:18:32;16.77;;;9.57;;
13032;SDS011;6583;42.632;23.298;2023-02-24T08:21:01;17.00;;;10.37;;
13032;SDS011;6583;42.632;23.298;2023-02-24T08:23:29;14.97;;;9.73;;
13032;SDS011;6583;42.632;23.298;2023-02-24T08:26:08;16.30;;;10.23;;
13032;SDS011;6583;42.632;23.298;2023-02-24T08:28:36;18.30;;;11.83;;
13032;SDS011;6583;42.632;23.298;2023-02-24T08:31:05;18.13;;;10.40;;
13032;SDS011;6583;42.632;23.298;2023-02-24T08:33:36;15.87;;;10.33;;
13032;SDS011;6583;42.632;23.298;2023-02-24T08:36:03;15.73;;;10.13;;
13032;SDS011;6583;42.632;23.298;2023-02-24T08:38:31;18.47;;;11.07;;
13032;SDS011;6583;42.632;23.298;2023-02-24T08:41:10;16.40;;;11.27;;
13032;SDS011;6583;42.632;23.298;2023-02-24T08:43:41;16.67;;;11.00;;
13032;SDS011;6583;42.632;23.298;2023-02-24T08:46:15;14.97;;;9.90;;
13032;SDS011;6583;42.632;23.298;2023-02-24T08:48:45;19.23;;;10.67;;
13032;SDS011;6583;42.632;23.298;2023-02-24T08:51:15;18.10;;;11.37;;
13032;SDS011;6583;42.632;23.298;2023-02-24T08:53:46;17.63;;;10.93;;
13032;SDS011;6583;42.632;23.298;2023-02-24T08:56:17;15.67;;;10.83;;
13032;SDS011;6583;42.632;23.298;2023-02-24T08:58:48;18.17;;;11.17;;
13032;SDS011;6583;42.632;23.298;2023-02-24T09:01:22;15.73;;;10.43;;
13032;SDS011;6583;42.632;23.298;2023-02-24T09:03:52;18.57;;;11.27;;
13032;SDS011;6583;42.632;23.298;2023-02-24T09:06:22;16.43;;;10.40;;
13032;SDS011;6583;42.632;23.298;2023-02-24T09:08:52;17.87;;;10.87;;
13032;SDS011;6583;42.632;23.298;2023-02-24T09:11:34;17.47;;;11.30;;
13032;SDS011;6583;42.632;23.298;2023-02-24T09:14:01;23.93;;;11.67;;
13032;SDS011;6583;42.632;23.298;2023-02-24T09:16:30;17.27;;;11.13;;
13032;SDS011;6583;42.632;23.298;2023-02-24T09:18:56;16.97;;;11.00;;
13032;SDS011;6583;42.632;23.298;2023-02-24T09:21:37;18.87;;;11.33;;
13032;SDS011;6583;42.632;23.298;2023-02-24T09:24:23;21.73;;;11.47;;
13032;SDS011;6583;42.632;23.298;2023-02-24T09:26:52;20.93;;;11.80;;
13032;SDS011;6583;42.632;23.298;2023-02-24T09:29:22;17.27;;;11.17;;
13032;SDS011;6583;42.632;23.298;2023-02-24T09:32:00;19.90;;;11.33;;
13032;SDS011;6583;42.632;23.298;2023-02-24T09:34:30;20.07;;;11.33;;
13032;SDS011;6583;42.632;23.298;2023-02-24T09:36:57;20.43;;;11.40;;
13032;SDS011;6583;42.632;23.298;2023-02-24T09:39:28;20.13;;;11.80;;
13032;SDS011;6583;42.632;23.298;2023-02-24T09:42:16;14.73;;;10.67;;
13032;SDS011;6583;42.632;23.298;2023-02-24T09:44:58;20.30;;;11.73;;
13032;SDS011;6583;42.632;23.298;2023-02-24T09:47:29;17.23;;;10.07;;
13032;SDS011;6583;42.632;23.298;2023-02-24T09:50:22;18.07;;;11.17;;
13032;SDS011;6583;42.632;23.298;2023-02-24T09:52:56;16.47;;;10.60;;
13032;SDS011;6583;42.632;23.298;2023-02-24T09:55:40;18.63;;;10.60;;
13032;SDS011;6583;42.632;23.298;2023-02-24T09:58:25;18.90;;;11.53;;
13032;SDS011;6583;42.632;23.298;2023-02-24T10:01:03;15.70;;;10.57;;
13032;SDS011;6583;42.632;23.298;2023-02-24T10:03:51;17.70;;;10.77;;
13032;SDS011;6583;42.632;23.298;2023-02-24T10:06:28;14.70;;;10.53;;
13032;SDS011;6583;42.632;23.298;2023-02-24T10:09:02;18.33;;;11.27;;
13032;SDS011;6583;42.632;23.298;2023-02-24T10:11:37;17.50;;;10.83;;
13032;SDS011;6583;42.632;23.298;2023-02-24T10:14:17;19.27;;;11.00;;
13032;SDS011;6583;42.632;23.298;2023-02-24T10:16:48;18.03;;;11.37;;
13032;SDS011;6583;42.632;23.298;2023-02-24T10:19:41;16.50;;;11.17;;
13032;SDS011;6583;42.632;23.298;2023-02-24T10:22:11;19.17;;;11.93;;
13032;SDS011;6583;42.632;23.298;2023-02-24T10:24:52;20.87;;;11.77;;
13032;SDS011;6583;42.632;23.298;2023-02-24T10:27:36;17.63;;;11.47;;
13032;SDS011;6583;42.632;23.298;2023-02-24T10:30:21;23.03;;;12.40;;
13032;SDS011;6583;42.632;23.298;2023-02-24T10:33:05;22.40;;;12.40;;
13032;SDS011;6583;42.632;23.298;2023-02-24T10:35:44;20.60;;;12.10;;
13032;SDS011;6583;42.632;23.298;2023-02-24T10:38:11;20.10;;;11.87;;
13032;SDS011;6583;42.632;23.298;2023-02-24T10:40:45;17.87;;;11.00;;
13032;SDS011;6583;42.632;23.298;2023-02-24T10:43:21;16.43;;;10.43;;
13032;SDS011;6583;42.632;23.298;2023-02-24T10:45:54;16.23;;;10.77;;
13032;SDS011;6583;42.632;23.298;2023-02-24T10:48:30;18.43;;;11.33;;
13032;SDS011;6583;42.632;23.298;2023-02-24T10:51:08;17.87;;;11.73;;
13032;SDS011;6583;42.632;23.298;2023-02-24T10:53:45;19.67;;;12.60;;
13032;SDS011;6583;42.632;23.298;2023-02-24T10:56:17;19.17;;;11.07;;
13032;SDS011;6583;42.632;23.298;2023-02-24T10:59:08;19.60;;;11.47;;
13032;SDS011;6583;42.632;23.298;2023-02-24T11:02:13;20.03;;;11.23;;
13032;SDS011;6583;42.632;23.298;2023-02-24T11:04:51;18.20;;;11.43;;
13032;SDS011;6583;42.632;23.298;2023-02-24T11:07:30;20.07;;;11.20;;
13032;SDS011;6583;42.632;23.298;2023-02-24T11:10:18;17.80;;;11.87;;
13032;SDS011;6583;42.632;23.298;2023-02-24T11:12:51;17.57;;;10.97;;
13032;SDS011;6583;42.632;23.298;2023-02-24T11:15:40;17.03;;;10.07;;
13032;SDS011;6583;42.632;23.298;2023-02-24T11:18:27;18.50;;;11.60;;
13032;SDS011;6583;42.632;23.298;2023-02-24T11:20:57;17.50;;;11.33;;
13032;SDS011;6583;42.632;23.298;2023-02-24T11:23:27;22.63;;;12.70;;
13032;SDS011;6583;42.632;23.298;2023-02-24T11:25:59;21.63;;;11.43;;
13032;SDS011;6583;42.632;23.298;2023-02-24T11:28:34;19.87;;;12.73;;
13032;SDS011;6583;42.632;23.298;2023-02-24T11:31:16;18.33;;;10.93;;
13032;SDS011;6583;42.632;23.298;2023-02-24T11:33:54;22.47;;;11.60;;
13032;SDS011;6583;42.632;23.298;2023-02-24T11:36:35;20.37;;;12.10;;
13032;SDS011;6583;42.632;23.298;2023-02-24T11:39:25;18.10;;;11.33;;
13032;SDS011;6583;42.632;23.298;2023-02-24T11:42:07;17.00;;;11.20;;
13032;SDS011;6583;42.632;23.298;2023-02-24T11:44:41;17.97;;;12.13;;
13032;SDS011;6583;42.632;23.298;2023-02-24T11:47:15;20.07;;;11.90;;
13032;SDS011;6583;42.632;23.298;2023-02-24T11:49:47;20.03;;;11.27;;
13032;SDS011;6583;42.632;23.298;2023-02-24T11:52:17;17.90;;;12.23;;
13032;SDS011;6583;42.632;23.298;2023-02-24T11:54:51;17.17;;;11.80;;
13032;SDS011;6583;42.632;23.298;2023-02-24T11:57:20;19.30;;;11.60;;
13032;SDS011;6583;42.632;23.298;2023-02-24T12:00:02;17.90;;;11.73;;
13032;SDS011;6583;42.632;23.298;2023-02-24T12:02:40;20.80;;;12.80;;
13032;SDS011;6583;42.632;23.298;2023-02-24T12:05:13;21.73;;;11.90;;
13032;SDS011;6583;42.632;23.298;2023-02-24T12:07:43;17.47;;;12.43;;
13032;SDS011;6583;42.632;23.298;2023-02-24T12:10:17;18.97;;;12.43;;
13032;SDS011;6583;42.632;23.298;2023-02-24T12:12:47;17.40;;;12.23;;
13032;SDS011;6583;42.632;23.298;2023-02-24T12:15:21;19.33;;;12.60;;
13032;SDS011;6583;42.632;23.298;2023-02-24T12:17:57;18.83;;;12.97;;
13032;SDS011;6583;42.632;23.298;2023-02-24T12:20:33;19.63;;;12.67;;
13032;SDS011;6583;42.632;23.298;2023-02-24T12:23:06;17.03;;;11.57;;
13032;SDS011;6583;42.632;23.298;2023-02-24T12:25:45;20.27;;;12.17;;
13032;SDS011;6583;42.632;23.298;2023-02-24T12:28:26;17.00;;;11.83;;
13032;SDS011;6583;42.632;23.298;2023-02-24T12:31:05;18.80;;;11.40;;
13032;SDS011;6583;42.632;23.298;2023-02-24T12:33:48;17.97;;;12.03;;
13032;SDS011;6583;42.632;23.298;2023-02-24T12:36:25;20.00;;;12.13;;
13032;SDS011;6583;42.632;23.298;2023-02-24T12:39:04;18.27;;;11.87;;
13032;SDS011;6583;42.632;23.298;2023-02-24T12:41:41;20.87;;;12.80;;
13032;SDS011;6583;42.632;23.298;2023-02-24T12:44:20;17.10;;;11.67;;
13032;SDS011;6583;42.632;23.298;2023-02-24T12:46:59;20.13;;;12.13;;
13032;SDS011;6583;42.632;23.298;2023-02-24T12:49:41;16.80;;;11.43;;
13032;SDS011;6583;42.632;23.298;2023-02-24T12:52:21;17.50;;;12.57;;
13032;SDS011;6583;42.632;23.298;2023-02-24T12:54:53;20.80;;;13.37;;
13032;SDS011;6583;42.632;23.298;2023-02-24T12:57:27;19.03;;;12.57;;
13032;SDS011;6583;42.632;23.298;2023-02-24T13:00:05;18.37;;;11.83;;
13032;SDS011;6583;42.632;23.298;2023-02-24T13:02:40;26.20;;;16.07;;
13032;SDS011;6583;42.632;23.298;2023-02-24T13:05:18;26.33;;;16.43;;
13032;SDS011;6583;42.632;23.298;2023-02-24T13:07:52;23.03;;;16.07;;
13032;SDS011;6583;42.632;23.298;2023-02-24T13:10:36;24.33;;;16.57;;
13032;SDS011;6583;42.632;23.298;2023-02-24T13:13:14;26.60;;;16.47;;
13032;SDS011;6583;42.632;23.298;2023-02-24T13:15:49;24.93;;;16.13;;
13032;SDS011;6583;42.632;23.298;2023-02-24T13:18:25;24.10;;;15.83;;
13032;SDS011;6583;42.632;23.298;2023-02-24T13:21:03;28.07;;;16.77;;
13032;SDS011;6583;42.632;23.298;2023-02-24T13:23:32;24.23;;;15.97;;
13032;SDS011;6583;42.632;23.298;2023-02-24T13:25:59;23.57;;;15.50;;
13032;SDS011;6583;42.632;23.298;2023-02-24T13:28:28;27.10;;;16.40;;
13032;SDS011;6583;42.632;23.298;2023-02-24T13:30:58;23.67;;;16.37;;
13032;SDS011;6583;42.632;23.298;2023-02-24T13:33:28;24.47;;;15.60;;
13032;SDS011;6583;42.632;23.298;2023-02-24T13:36:07;23.03;;;15.47;;
13032;SDS011;6583;42.632;23.298;2023-02-24T13:38:40;22.60;;;16.10;;
13032;SDS011;6583;42.632;23.298;2023-02-24T13:41:17;28.87;;;15.80;;
13032;SDS011;6583;42.632;23.298;2023-02-24T13:43:54;24.43;;;15.33;;
13032;SDS011;6583;42.632;23.298;2023-02-24T13:46:23;21.73;;;14.20;;
13032;SDS011;6583;42.632;23.298;2023-02-24T13:48:57;23.63;;;14.80;;
13032;SDS011;6583;42.632;23.298;2023-02-24T13:57:33;28.30;;;16.40;;
13032;SDS011;6583;42.632;23.298;2023-02-24T14:00:32;22.80;;;16.60;;
13032;SDS011;6583;42.632;23.298;2023-02-24T14:03:08;28.07;;;16.93;;
13032;SDS011;6583;42.632;23.298;2023-02-24T14:05:38;23.23;;;15.67;;
13032;SDS011;6583;42.632;23.298;2023-02-24T14:08:07;25.03;;;15.50;;
13032;SDS011;6583;42.632;23.298;2023-02-24T14:10:42;23.03;;;15.47;;
13032;SDS011;6583;42.632;23.298;2023-02-24T14:13:13;24.27;;;15.87;;
13032;SDS011;6583;42.632;23.298;2023-02-24T14:15:44;24.03;;;16.70;;
13032;SDS011;6583;42.632;23.298;2023-02-24T14:18:16;28.73;;;18.03;;
13032;SDS011;6583;42.632;23.298;2023-02-24T14:20:44;30.00;;;18.80;;
13032;SDS011;6583;42.632;23.298;2023-02-24T14:23:18;30.60;;;19.93;;
13032;SDS011;6583;42.632;23.298;2023-02-24T14:25:47;36.87;;;20.10;;
13032;SDS011;6583;42.632;23.298;2023-02-24T14:28:20;25.53;;;18.50;;
13032;SDS011;6583;42.632;23.298;2023-02-24T14:30:52;30.63;;;20.07;;
13032;SDS011;6583;42.632;23.298;2023-02-24T14:33:23;30.53;;;19.87;;
13032;SDS011;6583;42.632;23.298;2023-02-24T14:35:54;31.00;;;19.33;;
13032;SDS011;6583;42.632;23.298;2023-02-24T14:38:26;28.83;;;20.43;;
13032;SDS011;6583;42.632;23.298;2023-02-24T14:40:54;35.13;;;20.60;;
13032;SDS011;6583;42.632;23.298;2023-02-24T14:43:21;32.40;;;21.27;;
13032;SDS011;6583;42.632;23.298;2023-02-24T14:45:47;30.40;;;19.33;;
13032;SDS011;6583;42.632;23.298;2023-02-24T14:48:20;26.97;;;19.77;;
13032;SDS011;6583;42.632;23.298;2023-02-24T14:50:50;32.43;;;21.07;;
13032;SDS011;6583;42.632;23.298;2023-02-24T14:53:17;32.27;;;21.53;;
13032;SDS011;6583;42.632;23.298;2023-02-24T14:55:49;32.73;;;21.77;;
13032;SDS011;6583;42.632;23.298;2023-02-24T14:58:20;29.77;;;20.70;;
13032;SDS011;6583;42.632;23.298;2023-02-24T15:00:52;29.90;;;21.17;;
13032;SDS011;6583;42.632;23.298;2023-02-24T15:03:23;34.30;;;21.50;;
13032;SDS011;6583;42.632;23.298;2023-02-24T15:05:53;33.33;;;21.40;;
13032;SDS011;6583;42.632;23.298;2023-02-24T15:08:26;30.07;;;20.57;;
13032;SDS011;6583;42.632;23.298;2023-02-24T15:10:58;32.67;;;21.13;;
13032;SDS011;6583;42.632;23.298;2023-02-24T15:13:27;31.90;;;19.90;;